createdAt,value
2022-12-08T00:01:33.417Z,16.88
2022-12-08T00:04:03.201Z,15.57
2022-12-08T00:06:58.440Z,17.13
2022-12-08T00:09:39.967Z,16.90
2022-12-08T00:12:16.523Z,17.90
2022-12-08T00:14:47.319Z,16.90
2022-12-08T00:17:16.696Z,17.80
2022-12-08T00:19:44.419Z,18.50
2022-12-08T00:22:13.114Z,19.20
2022-12-08T00:24:44.292Z,18.73
2022-12-08T00:27:15.876Z,19.27
2022-12-08T00:29:44.914Z,19.67
2022-12-08T00:32:12.627Z,20.77
2022-12-08T00:34:39.956Z,21.15
2022-12-08T00:37:07.245Z,20.92
2022-12-08T00:39:34.527Z,20.38
2022-12-08T00:42:13.683Z,22.02
2022-12-08T00:44:43.616Z,22.08
2022-12-08T00:47:13.101Z,22.27
2022-12-08T00:49:40.631Z,22.00
2022-12-08T00:52:08.178Z,22.60
2022-12-08T00:54:35.417Z,22.63
2022-12-08T00:57:02.636Z,23.05
2022-12-08T00:59:29.904Z,23.85
2022-12-08T01:01:57.105Z,23.30
2022-12-08T01:04:24.731Z,23.65
2022-12-08T01:06:52.106Z,32.90
2022-12-08T01:09:19.543Z,29.15
2022-12-08T01:11:47.295Z,26.05
2022-12-08T01:14:15.091Z,24.00
2022-12-08T01:16:42.594Z,22.83
2022-12-08T01:19:13.182Z,23.23
2022-12-08T01:21:42.142Z,24.15
2022-12-08T01:24:19.823Z,22.85
2022-12-08T01:26:49.035Z,23.52
2022-12-08T01:29:16.561Z,22.80
2022-12-08T01:31:43.825Z,23.17
2022-12-08T01:34:12.258Z,23.08
2022-12-08T01:36:39.817Z,23.42
2022-12-08T01:39:14.542Z,22.45
2022-12-08T01:41:43.699Z,23.75
2022-12-08T01:44:10.849Z,22.25
2022-12-08T01:46:41.658Z,22.20
2022-12-08T01:49:26.236Z,21.95
2022-12-08T01:51:59.306Z,22.80
2022-12-08T01:54:34.389Z,22.35
2022-12-08T01:57:37.544Z,20.73
2022-12-08T02:00:12.369Z,15.43
2022-12-08T02:03:06.997Z,21.63
2022-12-08T02:05:38.970Z,20.63
2022-12-08T02:08:10.497Z,21.15
2022-12-08T02:10:41.672Z,21.05
2022-12-08T02:13:17.685Z,21.63
2022-12-08T02:15:55.406Z,21.92
2022-12-08T02:18:28.212Z,22.08
2022-12-08T02:21:05.977Z,21.35
2022-12-08T02:24:07.494Z,20.42
2022-12-08T02:27:22.615Z,21.13
2022-12-08T02:30:11.484Z,19.98
2022-12-08T02:33:15.834Z,21.63
2022-12-08T02:36:13.112Z,20.17
2022-12-08T02:39:11.021Z,20.80
2022-12-08T02:42:19.775Z,21.80
2022-12-08T02:45:15.021Z,20.98
2022-12-08T02:47:43.371Z,20.50
2022-12-08T02:50:12.259Z,20.48
2022-12-08T02:52:46.620Z,20.48
2022-12-08T02:55:16.497Z,20.45
2022-12-08T02:58:37.496Z,19.35
2022-12-08T03:01:35.106Z,19.17
2022-12-08T03:04:50.354Z,18.67
2022-12-08T03:07:26.621Z,17.98
2022-12-08T03:10:10.382Z,18.23
2022-12-08T03:12:45.558Z,17.60
2022-12-08T03:15:18.371Z,17.75
2022-12-08T03:17:57.128Z,16.45
2022-12-08T03:20:27.669Z,17.30
2022-12-08T03:23:00.128Z,17.17
2022-12-08T03:25:33.796Z,17.63
2022-12-08T03:28:01.159Z,17.83
2022-12-08T03:30:36.495Z,17.23
2022-12-08T03:33:31.799Z,16.75
2022-12-08T03:36:02.175Z,15.45
2022-12-08T03:38:39.783Z,16.02
2022-12-08T03:41:19.545Z,16.60
2022-12-08T03:43:57.084Z,15.63
2022-12-08T03:48:55.785Z,15.52
2022-12-08T03:51:23.879Z,15.68
2022-12-08T03:53:51.446Z,16.63
2022-12-08T03:56:30.602Z,15.07
2022-12-08T03:58:58.721Z,15.02
2022-12-08T04:01:26.530Z,14.48
2022-12-08T04:03:54.456Z,15.18
2022-12-08T04:06:22.364Z,15.23
2022-12-08T04:08:51.322Z,14.88
2022-12-08T04:11:20.172Z,18.75
2022-12-08T04:13:48.045Z,19.75
2022-12-08T04:16:23.956Z,27.63
2022-12-08T04:18:51.724Z,21.90
2022-12-08T04:21:18.926Z,19.33
2022-12-08T04:23:47.223Z,19.67
2022-12-08T04:26:16.599Z,18.20
2022-12-08T04:28:44.670Z,16.23
2022-12-08T04:31:11.882Z,16.92
2022-12-08T04:33:39.823Z,17.40
2022-12-08T04:36:08.265Z,16.48
2022-12-08T04:38:35.446Z,16.17
2022-12-08T04:41:03.066Z,15.73
2022-12-08T04:43:30.360Z,16.20
2022-12-08T04:45:57.588Z,16.45
2022-12-08T04:48:24.866Z,15.63
2022-12-08T04:50:52.304Z,15.93
2022-12-08T04:53:20.024Z,16.42
2022-12-08T04:55:49.465Z,16.02
2022-12-08T04:58:19.895Z,15.68
2022-12-08T05:00:48.182Z,16.77
2022-12-08T05:03:16.974Z,15.50
2022-12-08T05:05:44.326Z,16.35
2022-12-08T05:08:11.675Z,15.32
2022-12-08T05:10:39.456Z,16.23
2022-12-08T05:13:06.726Z,15.73
2022-12-08T05:15:33.920Z,16.08
2022-12-08T05:18:01.091Z,15.48
2022-12-08T05:20:28.288Z,53.53
2022-12-08T05:22:55.510Z,20.67
2022-12-08T05:25:22.775Z,16.05
2022-12-08T05:27:50.174Z,17.05
2022-12-08T05:30:17.498Z,17.50
2022-12-08T05:32:44.742Z,15.85
2022-12-08T05:35:11.935Z,15.23
2022-12-08T05:37:39.245Z,15.25
2022-12-08T05:40:07.664Z,14.07
2022-12-08T05:42:35.159Z,14.45
2022-12-08T05:45:02.378Z,15.02
2022-12-08T05:47:34.468Z,14.50
2022-12-08T05:50:04.395Z,14.85
2022-12-08T05:52:32.841Z,14.60
2022-12-08T05:55:00.471Z,16.08
2022-12-08T05:57:27.973Z,16.13
2022-12-08T05:59:55.221Z,16.02
2022-12-08T06:02:22.587Z,15.27
2022-12-08T06:04:49.886Z,16.55
2022-12-08T06:07:17.441Z,17.17
2022-12-08T06:09:44.712Z,16.88
2022-12-08T06:12:11.905Z,17.33
2022-12-08T06:14:39.833Z,17.00
2022-12-08T06:17:07.457Z,18.80
2022-12-08T06:19:34.773Z,18.20
2022-12-08T06:22:01.939Z,22.38
2022-12-08T06:24:29.156Z,29.75
2022-12-08T06:26:56.363Z,23.17
2022-12-08T06:29:23.575Z,20.05
2022-12-08T06:31:52.268Z,21.30
2022-12-08T06:34:19.456Z,20.67
2022-12-08T06:36:46.592Z,19.70
2022-12-08T06:39:13.738Z,21.85
2022-12-08T06:42:10.062Z,21.80
2022-12-08T06:44:37.774Z,19.52
2022-12-08T06:47:05.176Z,23.33
2022-12-08T06:49:32.324Z,21.45
2022-12-08T06:51:59.539Z,21.38
2022-12-08T06:54:27.318Z,21.38
2022-12-08T06:56:54.484Z,20.60
2022-12-08T06:59:21.765Z,20.95
2022-12-08T07:01:48.953Z,21.38
2022-12-08T07:04:16.187Z,21.58
2022-12-08T07:06:43.610Z,21.52
2022-12-08T07:09:10.791Z,21.50
2022-12-08T07:11:39.380Z,22.70
2022-12-08T07:14:06.911Z,22.10
2022-12-08T07:16:34.312Z,23.27
2022-12-08T07:19:02.300Z,23.80
2022-12-08T07:21:29.578Z,24.33
2022-12-08T07:23:58.043Z,25.65
2022-12-08T07:26:26.872Z,25.42
2022-12-08T07:28:54.145Z,26.58
2022-12-08T07:31:25.412Z,27.85
2022-12-08T07:33:53.492Z,28.88
2022-12-08T07:36:21.604Z,28.60
2022-12-08T07:38:50.242Z,29.35
2022-12-08T07:41:23.601Z,29.05
2022-12-08T07:43:53.392Z,29.67
2022-12-08T07:46:23.688Z,30.65
2022-12-08T07:48:54.967Z,30.48
2022-12-08T07:51:22.163Z,30.88
2022-12-08T07:53:54.124Z,30.67
2022-12-08T07:56:23.169Z,31.17
2022-12-08T07:58:50.699Z,30.75
2022-12-08T08:01:29.720Z,31.67
2022-12-08T08:04:01.632Z,30.48
2022-12-08T08:06:28.936Z,30.38
2022-12-08T08:08:56.170Z,29.52
2022-12-08T08:11:23.696Z,31.42
2022-12-08T08:13:51.759Z,29.38
2022-12-08T08:16:20.529Z,28.40
2022-12-08T08:18:50.465Z,27.30
2022-12-08T08:24:06.492Z,25.00
2022-12-08T08:26:34.072Z,26.15
2022-12-08T08:29:01.241Z,23.73
2022-12-08T08:31:28.472Z,24.90
2022-12-08T08:33:57.418Z,23.75
2022-12-08T08:36:24.625Z,25.35
2022-12-08T08:38:52.340Z,26.00
2022-12-08T08:41:19.550Z,27.27
2022-12-08T08:43:46.732Z,24.27
2022-12-08T08:46:13.954Z,22.92
2022-12-08T08:48:41.246Z,22.27
2022-12-08T08:51:11.435Z,20.50
2022-12-08T08:53:38.801Z,19.13
2022-12-08T08:56:15.605Z,18.45
2022-12-08T08:58:42.945Z,18.20
2022-12-08T09:01:20.680Z,17.60
2022-12-08T09:03:48.982Z,17.90
2022-12-08T09:06:18.158Z,17.95
2022-12-08T09:08:47.191Z,18.13
2022-12-08T09:11:14.865Z,17.67
2022-12-08T09:13:42.170Z,17.73
2022-12-08T09:16:11.369Z,16.17
2022-12-08T09:18:38.685Z,17.02
2022-12-08T09:21:16.775Z,17.95
2022-12-08T09:23:44.080Z,18.27
2022-12-08T09:26:11.952Z,18.35
2022-12-08T09:28:39.179Z,18.42
2022-12-08T09:31:06.393Z,22.63
2022-12-08T09:33:33.577Z,21.60
2022-12-08T09:36:04.773Z,18.52
2022-12-08T09:38:32.296Z,18.73
2022-12-08T09:41:03.499Z,17.83
2022-12-08T09:43:39.467Z,16.98
2022-12-08T09:46:10.988Z,18.23
2022-12-08T09:48:47.873Z,17.73
2022-12-08T09:51:16.045Z,18.88
2022-12-08T09:53:50.952Z,18.42
2022-12-08T09:56:32.919Z,18.33
2022-12-08T09:59:16.214Z,18.80
2022-12-08T10:04:25.766Z,18.35
2022-12-08T10:07:24.121Z,18.40
2022-12-08T10:10:25.270Z,19.17
2022-12-08T10:13:43.058Z,18.98
2022-12-08T10:16:36.734Z,19.25
2022-12-08T10:19:24.888Z,19.73
2022-12-08T10:21:54.170Z,21.92
2022-12-08T10:24:43.841Z,22.38
2022-12-08T10:27:12.759Z,22.67
2022-12-08T10:29:40.916Z,22.33
2022-12-08T10:32:23.869Z,21.23
2022-12-08T10:35:12.016Z,22.88
2022-12-08T10:37:39.678Z,22.10
2022-12-08T10:40:17.817Z,21.67
2022-12-08T10:42:53.376Z,21.75
2022-12-08T10:45:27.651Z,21.48
2022-12-08T10:48:20.159Z,22.00
2022-12-08T10:50:55.447Z,21.75
2022-12-08T10:53:32.207Z,21.45
2022-12-08T10:56:02.105Z,19.55
2022-12-08T10:58:40.663Z,19.35
2022-12-08T11:01:12.617Z,18.67
2022-12-08T11:04:06.969Z,19.80
2022-12-08T11:06:36.723Z,17.70
2022-12-08T11:09:30.787Z,19.13
2022-12-08T11:12:14.670Z,18.45
2022-12-08T11:14:44.800Z,19.00
2022-12-08T11:17:17.888Z,19.65
2022-12-08T11:19:57.984Z,18.23
2022-12-08T11:22:33.117Z,18.33
2022-12-08T11:25:15.887Z,18.00
2022-12-08T11:27:48.470Z,18.58
2022-12-08T11:30:22.986Z,17.55
2022-12-08T11:32:59.552Z,18.00
2022-12-08T11:35:43.923Z,16.05
2022-12-08T11:38:22.648Z,16.98
2022-12-08T11:41:16.637Z,19.58
2022-12-08T11:44:01.688Z,17.23
2022-12-08T11:46:40.790Z,15.48
2022-12-08T11:49:14.444Z,15.98
2022-12-08T11:51:59.765Z,15.38
2022-12-08T11:54:32.157Z,14.82
2022-12-08T11:57:02.749Z,15.07
2022-12-08T11:59:39.460Z,14.30
2022-12-08T12:02:14.115Z,15.00
2022-12-08T12:05:07.005Z,14.75
2022-12-08T12:08:00.892Z,17.92
2022-12-08T12:11:06.199Z,14.05
2022-12-08T12:14:11.713Z,11.90
2022-12-08T12:16:58.838Z,12.32
2022-12-08T12:19:30.768Z,12.90
2022-12-08T12:22:02.417Z,12.20
2022-12-08T12:24:37.523Z,11.77
2022-12-08T12:27:27.881Z,12.95
2022-12-08T12:30:00.700Z,13.30
2022-12-08T12:32:44.958Z,14.60
2022-12-08T12:35:43.749Z,11.20
2022-12-08T12:38:50.735Z,10.57
2022-12-08T12:41:27.331Z,11.70
2022-12-08T12:44:14.345Z,11.20
2022-12-08T12:46:57.250Z,11.13
2022-12-08T12:49:51.027Z,11.30
2022-12-08T12:52:18.713Z,11.20
2022-12-08T12:55:11.663Z,11.02
2022-12-08T12:57:51.415Z,10.93
2022-12-08T13:00:22.169Z,10.20
2022-12-08T13:02:51.741Z,10.32
2022-12-08T13:05:35.314Z,10.48
2022-12-08T13:08:24.902Z,9.65
2022-12-08T13:11:09.794Z,9.35
2022-12-08T13:13:39.010Z,9.38
2022-12-08T13:16:18.493Z,10.00
2022-12-08T13:18:52.247Z,8.93
2022-12-08T13:21:23.446Z,8.85
2022-12-08T13:24:14.319Z,10.93
2022-12-08T13:27:04.968Z,9.02
2022-12-08T13:29:37.391Z,9.25
2022-12-08T13:33:16.705Z,8.70
2022-12-08T13:35:31.585Z,8.70
2022-12-08T13:38:01.379Z,8.77
2022-12-08T13:40:32.189Z,10.50
2022-12-08T13:43:19.542Z,9.70
2022-12-08T13:46:52.305Z,10.40
2022-12-08T13:56:16.722Z,9.38
2022-12-08T13:57:37.497Z,8.73
2022-12-08T14:00:17.986Z,9.63
2022-12-08T14:02:52.727Z,9.57
2022-12-08T14:05:47.546Z,9.52
2022-12-08T14:08:59.997Z,10.50
2022-12-08T14:11:35.084Z,9.68
2022-12-08T14:14:45.962Z,9.57
2022-12-08T14:17:19.176Z,10.75
2022-12-08T14:20:19.924Z,10.27
2022-12-08T14:22:50.253Z,9.90
2022-12-08T14:25:20.511Z,10.32
2022-12-08T14:27:48.682Z,10.32
2022-12-08T14:30:26.080Z,10.27
2022-12-08T14:32:59.032Z,10.57
2022-12-08T14:38:02.552Z,11.30
2022-12-08T14:40:37.215Z,12.35
2022-12-08T14:43:10.425Z,12.68
2022-12-08T14:45:40.282Z,12.63
2022-12-08T14:48:38.584Z,13.50
2022-12-08T14:51:19.098Z,12.77
2022-12-08T14:54:06.637Z,11.65
2022-12-08T14:56:50.278Z,10.98
2022-12-08T14:59:26.181Z,11.23
2022-12-08T15:02:10.789Z,11.63
2022-12-08T15:04:40.664Z,11.35
2022-12-08T15:07:17.202Z,11.18
2022-12-08T15:09:48.917Z,11.45
2022-12-08T15:12:31.824Z,10.90
2022-12-08T15:15:15.075Z,10.10
2022-12-08T15:20:43.925Z,10.83
2022-12-08T15:23:44.927Z,10.43
2022-12-08T15:26:25.014Z,10.60
2022-12-08T15:28:53.665Z,11.10
2022-12-08T15:31:21.737Z,11.48
2022-12-08T15:33:49.063Z,12.73
2022-12-08T15:36:16.280Z,13.13
2022-12-08T15:38:43.639Z,12.80
2022-12-08T15:41:14.937Z,13.13
2022-12-08T15:43:42.621Z,13.35
2022-12-08T15:46:10.102Z,11.27
2022-12-08T15:48:38.044Z,11.43
2022-12-08T15:51:05.221Z,11.00
2022-12-08T15:53:32.422Z,11.60
2022-12-08T15:58:55.227Z,12.30
2022-12-08T16:01:24.103Z,11.52
2022-12-08T16:09:36.953Z,11.93
2022-12-08T16:12:25.533Z,13.18
2022-12-08T16:17:41.251Z,16.98
2022-12-08T16:20:16.867Z,23.48
2022-12-08T16:22:54.476Z,36.00
2022-12-08T16:25:36.430Z,32.70
2022-12-08T16:28:45.139Z,34.88
2022-12-08T16:31:00.803Z,25.02
2022-12-08T16:33:28.392Z,22.25
2022-12-08T16:35:55.514Z,21.67
2022-12-08T16:38:22.656Z,20.73
2022-12-08T16:41:15.862Z,14.82
2022-12-08T16:43:42.997Z,13.50
2022-12-08T16:46:20.778Z,12.15
2022-12-08T16:48:47.928Z,12.20
2022-12-08T16:51:26.633Z,12.75
2022-12-08T16:53:56.723Z,12.27
2022-12-08T16:56:28.998Z,12.05
2022-12-08T16:58:59.692Z,35.90
2022-12-08T17:01:26.975Z,23.73
2022-12-08T17:06:41.317Z,50.15
2022-12-08T17:09:08.480Z,42.35
2022-12-08T17:11:42.282Z,36.53
2022-12-08T17:14:13.980Z,28.70
2022-12-08T17:16:42.727Z,25.55
2022-12-08T17:19:12.369Z,35.40
2022-12-08T17:21:39.537Z,29.63
2022-12-08T17:24:06.828Z,37.13
2022-12-08T17:26:34.228Z,17.50
2022-12-08T17:29:03.712Z,18.98
2022-12-08T17:31:32.940Z,18.70
2022-12-08T17:34:10.092Z,15.25
2022-12-08T17:36:37.587Z,14.40
2022-12-08T17:39:07.593Z,13.95
2022-12-08T17:41:35.136Z,14.38
2022-12-08T17:44:02.281Z,16.20
2022-12-08T17:46:29.543Z,16.08
2022-12-08T17:48:56.776Z,15.00
2022-12-08T17:51:23.913Z,16.38
2022-12-08T17:53:51.199Z,18.98
2022-12-08T17:56:21.263Z,20.30
2022-12-08T17:58:54.318Z,26.10
2022-12-08T18:01:23.969Z,19.45
2022-12-08T18:03:51.705Z,18.17
2022-12-08T18:06:19.239Z,15.38
2022-12-08T18:08:46.720Z,14.82
2022-12-08T18:11:19.499Z,14.93
2022-12-08T18:13:48.948Z,15.10
2022-12-08T18:16:19.401Z,15.52
2022-12-08T18:18:47.102Z,15.25
2022-12-08T18:21:18.559Z,14.77
2022-12-08T18:23:50.570Z,15.30
2022-12-08T18:26:17.943Z,16.42
2022-12-08T18:28:45.289Z,16.65
2022-12-08T18:31:17.033Z,16.13
2022-12-08T18:33:46.290Z,15.90
2022-12-08T18:36:18.307Z,16.13
2022-12-08T18:38:45.922Z,15.87
2022-12-08T18:41:18.937Z,22.02
2022-12-08T18:46:14.758Z,17.35
2022-12-08T18:48:48.404Z,16.77
2022-12-08T18:51:22.728Z,18.45
2022-12-08T18:53:51.103Z,18.15
2022-12-08T18:56:26.775Z,17.83
2022-12-08T18:58:59.983Z,19.48
2022-12-08T19:01:32.096Z,17.05
2022-12-08T19:06:48.769Z,14.55
2022-12-08T19:09:16.845Z,13.15
2022-12-08T19:11:44.483Z,11.63
2022-12-08T19:14:12.976Z,13.40
2022-12-08T19:16:40.200Z,13.27
2022-12-08T19:19:07.348Z,13.70
2022-12-08T19:21:34.524Z,13.57
2022-12-08T19:24:01.708Z,14.80
2022-12-08T19:26:29.033Z,17.17
2022-12-08T19:28:57.470Z,70.25
2022-12-08T19:31:24.907Z,109.22
2022-12-08T19:33:52.391Z,63.13
2022-12-08T19:36:22.782Z,44.67
2022-12-08T19:39:08.917Z,59.65
2022-12-08T19:41:55.670Z,55.78
2022-12-08T19:44:33.941Z,40.65
2022-12-08T19:47:01.887Z,35.00
2022-12-08T19:49:29.406Z,27.25
2022-12-08T19:51:57.780Z,26.88
2022-12-08T19:54:25.496Z,23.02
2022-12-08T19:56:52.921Z,19.63
2022-12-08T19:59:20.372Z,23.77
2022-12-08T20:01:48.356Z,32.10
2022-12-08T20:04:17.024Z,27.63
2022-12-08T20:06:45.469Z,24.58
2022-12-08T20:09:13.273Z,32.38
2022-12-08T20:11:41.292Z,30.08
2022-12-08T20:14:08.535Z,24.65
2022-12-08T20:16:35.951Z,21.33
2022-12-08T20:19:03.715Z,21.90
2022-12-08T20:21:30.949Z,23.20
2022-12-08T20:23:58.121Z,23.02
2022-12-08T20:26:25.332Z,25.08
2022-12-08T20:28:52.648Z,25.95
2022-12-08T20:31:23.598Z,27.70
2022-12-08T20:33:51.380Z,44.25
2022-12-08T20:36:21.220Z,38.85
2022-12-08T20:38:52.761Z,31.55
2022-12-08T20:41:23.199Z,47.65
2022-12-08T20:43:51.786Z,51.28
2022-12-08T20:46:21.257Z,80.22
2022-12-08T20:48:48.752Z,42.17
2022-12-08T20:51:19.489Z,31.02
2022-12-08T20:53:47.644Z,24.75
2022-12-08T20:56:19.158Z,23.88
2022-12-08T20:58:47.678Z,26.08
2022-12-08T21:01:19.078Z,22.88
2022-12-08T21:03:47.065Z,25.00
2022-12-08T21:06:16.047Z,24.40
2022-12-08T21:08:43.401Z,25.67
2022-12-08T21:11:10.940Z,25.00
2022-12-08T21:13:38.823Z,24.23
2022-12-08T21:16:09.326Z,27.02
2022-12-08T21:18:39.643Z,36.55
2022-12-08T21:21:12.795Z,41.08
2022-12-08T21:23:42.412Z,39.60
2022-12-08T21:26:13.199Z,65.65
2022-12-08T21:28:41.047Z,36.38
2022-12-08T21:31:10.868Z,31.98
2022-12-08T21:33:38.928Z,27.48
2022-12-08T21:36:12.064Z,27.20
2022-12-08T21:38:40.864Z,24.35
2022-12-08T21:41:16.559Z,25.83
2022-12-08T21:43:43.845Z,34.92
2022-12-08T21:46:16.660Z,30.58
2022-12-08T21:51:11.598Z,23.48
2022-12-08T21:53:38.960Z,22.88
2022-12-08T21:56:10.004Z,22.75
2022-12-08T21:58:39.498Z,25.10
2022-12-08T22:01:09.671Z,22.95
2022-12-08T22:03:40.030Z,23.08
2022-12-08T22:06:10.513Z,23.77
2022-12-08T22:08:38.803Z,25.17
2022-12-08T22:11:08.441Z,25.30
2022-12-08T22:13:38.658Z,27.83
2022-12-08T22:16:10.570Z,30.17
2022-12-08T22:18:38.290Z,32.03
2022-12-08T22:21:12.055Z,30.08
2022-12-08T22:23:39.601Z,27.33
2022-12-08T22:26:08.817Z,27.65
2022-12-08T22:28:40.179Z,27.23
2022-12-08T22:31:15.492Z,26.88
2022-12-08T22:33:43.552Z,27.08
2022-12-08T22:36:25.874Z,26.85
2022-12-08T22:38:54.720Z,27.40
2022-12-08T22:41:22.944Z,28.10
2022-12-08T22:43:51.406Z,26.45
2022-12-08T22:46:25.641Z,26.48
2022-12-08T22:48:54.754Z,26.95
2022-12-08T22:51:22.213Z,27.58
2022-12-08T22:53:50.442Z,28.20
2022-12-08T22:56:19.228Z,28.33
2022-12-08T22:58:46.985Z,27.25
2022-12-08T23:01:29.051Z,27.85
2022-12-08T23:03:58.585Z,29.00
2022-12-08T23:06:30.970Z,28.80
2022-12-08T23:08:59.298Z,28.75
2022-12-08T23:11:30.670Z,31.55
2022-12-08T23:14:00.326Z,35.55
2022-12-08T23:16:28.723Z,35.35
2022-12-08T23:18:56.089Z,38.85
2022-12-08T23:21:23.421Z,41.70
2022-12-08T23:23:50.655Z,43.85
2022-12-08T23:26:25.436Z,39.35
2022-12-08T23:28:54.054Z,39.83
2022-12-08T23:31:22.285Z,39.65
2022-12-08T23:33:50.353Z,43.63
2022-12-08T23:36:20.131Z,39.95
2022-12-08T23:38:48.025Z,37.90
2022-12-08T23:41:16.063Z,39.20
2022-12-08T23:43:46.958Z,38.28
2022-12-08T23:46:17.116Z,35.10
2022-12-08T23:48:45.213Z,36.90
2022-12-08T23:51:13.264Z,37.30
2022-12-08T23:53:41.221Z,37.35
2022-12-08T23:56:13.276Z,40.08
2022-12-08T23:58:41.885Z,36.37
